sensor_id;sensor_type;location;lat;lon;timestamp;P1;durP1;ratioP1;P2;durP2;ratioP2
62572;SDS011;48626;51.678;5.806;2023-01-24T20:21:00;18.05;;;11.25;;
62572;SDS011;48626;51.678;5.806;2023-01-24T20:23:26;17.90;;;12.30;;
62572;SDS011;48626;51.678;5.806;2023-01-24T20:25:52;21.13;;;13.15;;
62572;SDS011;48626;51.678;5.806;2023-01-24T20:28:17;19.35;;;13.07;;
62572;SDS011;48626;51.678;5.806;2023-01-24T20:30:43;21.52;;;13.90;;
62572;SDS011;48626;51.678;5.806;2023-01-24T20:33:09;24.50;;;14.02;;
62572;SDS011;48626;51.678;5.806;2023-01-24T20:35:35;21.95;;;13.98;;
62572;SDS011;48626;51.678;5.806;2023-01-24T20:38:00;24.17;;;14.50;;
62572;SDS011;48626;51.678;5.806;2023-01-24T20:40:27;22.25;;;14.15;;
62572;SDS011;48626;51.678;5.806;2023-01-24T20:42:53;21.60;;;14.88;;
62572;SDS011;48626;51.678;5.806;2023-01-24T20:45:19;23.05;;;14.85;;
62572;SDS011;48626;51.678;5.806;2023-01-24T20:47:45;24.08;;;15.25;;
62572;SDS011;48626;51.678;5.806;2023-01-24T20:50:11;21.73;;;14.30;;
62572;SDS011;48626;51.678;5.806;2023-01-24T20:52:37;23.38;;;14.00;;
62572;SDS011;48626;51.678;5.806;2023-01-24T20:55:02;22.65;;;14.75;;
62572;SDS011;48626;51.678;5.806;2023-01-24T20:57:28;20.80;;;13.68;;
62572;SDS011;48626;51.678;5.806;2023-01-24T20:59:54;25.23;;;16.15;;
62572;SDS011;48626;51.678;5.806;2023-01-24T21:02:19;24.55;;;16.02;;
62572;SDS011;48626;51.678;5.806;2023-01-24T21:04:45;24.80;;;14.60;;
62572;SDS011;48626;51.678;5.806;2023-01-24T21:07:11;24.55;;;16.20;;
62572;SDS011;48626;51.678;5.806;2023-01-24T21:09:36;26.35;;;16.27;;
62572;SDS011;48626;51.678;5.806;2023-01-24T21:12:02;24.92;;;16.00;;
62572;SDS011;48626;51.678;5.806;2023-01-24T21:14:28;23.73;;;15.77;;
62572;SDS011;48626;51.678;5.806;2023-01-24T21:16:53;27.60;;;16.98;;
62572;SDS011;48626;51.678;5.806;2023-01-24T21:19:19;32.67;;;18.35;;
62572;SDS011;48626;51.678;5.806;2023-01-24T21:21:46;31.02;;;17.75;;
62572;SDS011;48626;51.678;5.806;2023-01-24T21:24:13;27.58;;;16.40;;
62572;SDS011;48626;51.678;5.806;2023-01-24T21:26:41;25.10;;;15.63;;
62572;SDS011;48626;51.678;5.806;2023-01-24T21:29:07;24.08;;;16.52;;
62572;SDS011;48626;51.678;5.806;2023-01-24T21:31:33;24.95;;;15.77;;
62572;SDS011;48626;51.678;5.806;2023-01-24T21:33:59;25.67;;;16.70;;
62572;SDS011;48626;51.678;5.806;2023-01-24T21:36:25;27.13;;;17.77;;
62572;SDS011;48626;51.678;5.806;2023-01-24T21:38:56;26.15;;;17.30;;
62572;SDS011;48626;51.678;5.806;2023-01-24T21:41:26;27.67;;;16.75;;
62572;SDS011;48626;51.678;5.806;2023-01-24T21:44:10;29.60;;;18.92;;
62572;SDS011;48626;51.678;5.806;2023-01-24T21:46:36;33.88;;;20.23;;
62572;SDS011;48626;51.678;5.806;2023-01-24T21:49:01;30.95;;;20.08;;
62572;SDS011;48626;51.678;5.806;2023-01-24T21:54:12;28.63;;;18.90;;
62572;SDS011;48626;51.678;5.806;2023-01-24T21:56:39;31.88;;;21.00;;
62572;SDS011;48626;51.678;5.806;2023-01-24T21:59:26;32.38;;;20.10;;
62572;SDS011;48626;51.678;5.806;2023-01-24T22:01:58;34.70;;;21.35;;
62572;SDS011;48626;51.678;5.806;2023-01-24T22:04:25;35.63;;;21.73;;
62572;SDS011;48626;51.678;5.806;2023-01-24T22:06:52;44.60;;;25.77;;
62572;SDS011;48626;51.678;5.806;2023-01-24T22:09:19;33.42;;;21.17;;
62572;SDS011;48626;51.678;5.806;2023-01-24T22:11:45;28.40;;;19.58;;
62572;SDS011;48626;51.678;5.806;2023-01-24T22:14:12;32.67;;;20.88;;
62572;SDS011;48626;51.678;5.806;2023-01-24T22:16:40;35.30;;;21.70;;
62572;SDS011;48626;51.678;5.806;2023-01-24T22:19:13;32.40;;;19.83;;
62572;SDS011;48626;51.678;5.806;2023-01-24T22:24:16;33.40;;;21.25;;
62572;SDS011;48626;51.678;5.806;2023-01-24T22:27:03;35.08;;;21.63;;
62572;SDS011;48626;51.678;5.806;2023-01-24T22:29:35;32.30;;;20.25;;
62572;SDS011;48626;51.678;5.806;2023-01-24T22:32:01;34.95;;;21.88;;
62572;SDS011;48626;51.678;5.806;2023-01-24T22:34:28;32.95;;;20.95;;
62572;SDS011;48626;51.678;5.806;2023-01-24T22:39:42;36.72;;;22.35;;
62572;SDS011;48626;51.678;5.806;2023-01-24T22:42:08;35.25;;;21.90;;
62572;SDS011;48626;51.678;5.806;2023-01-24T22:44:33;34.83;;;20.80;;
62572;SDS011;48626;51.678;5.806;2023-01-24T22:46:59;34.92;;;22.25;;
62572;SDS011;48626;51.678;5.806;2023-01-24T22:49:25;35.42;;;22.55;;
62572;SDS011;48626;51.678;5.806;2023-01-24T22:51:50;41.85;;;21.98;;
62572;SDS011;48626;51.678;5.806;2023-01-24T22:54:16;33.83;;;20.70;;
62572;SDS011;48626;51.678;5.806;2023-01-24T22:56:41;34.20;;;21.25;;
62572;SDS011;48626;51.678;5.806;2023-01-24T22:59:07;33.92;;;21.45;;
62572;SDS011;48626;51.678;5.806;2023-01-24T23:01:33;34.45;;;20.17;;
62572;SDS011;48626;51.678;5.806;2023-01-24T23:03:58;32.03;;;20.33;;
62572;SDS011;48626;51.678;5.806;2023-01-24T23:06:24;36.42;;;21.27;;
62572;SDS011;48626;51.678;5.806;2023-01-24T23:08:50;31.05;;;19.85;;
62572;SDS011;48626;51.678;5.806;2023-01-24T23:11:17;33.78;;;21.05;;
62572;SDS011;48626;51.678;5.806;2023-01-24T23:13:44;33.10;;;20.80;;
62572;SDS011;48626;51.678;5.806;2023-01-24T23:16:34;41.22;;;23.95;;
62572;SDS011;48626;51.678;5.806;2023-01-24T23:19:05;35.65;;;22.25;;
62572;SDS011;48626;51.678;5.806;2023-01-24T23:22:07;37.97;;;22.13;;
62572;SDS011;48626;51.678;5.806;2023-01-24T23:24:33;34.88;;;20.73;;
62572;SDS011;48626;51.678;5.806;2023-01-24T23:26:59;35.28;;;22.10;;
62572;SDS011;48626;51.678;5.806;2023-01-24T23:34:40;37.90;;;22.75;;
62572;SDS011;48626;51.678;5.806;2023-01-24T23:37:13;39.35;;;21.92;;
62572;SDS011;48626;51.678;5.806;2023-01-24T23:39:38;37.25;;;20.98;;
62572;SDS011;48626;51.678;5.806;2023-01-24T23:42:04;35.35;;;20.95;;
62572;SDS011;48626;51.678;5.806;2023-01-24T23:44:30;37.30;;;21.65;;
62572;SDS011;48626;51.678;5.806;2023-01-24T23:46:56;34.50;;;20.85;;
62572;SDS011;48626;51.678;5.806;2023-01-24T23:49:22;36.00;;;21.20;;
62572;SDS011;48626;51.678;5.806;2023-01-24T23:51:48;35.67;;;20.88;;
62572;SDS011;48626;51.678;5.806;2023-01-24T23:54:14;39.28;;;23.17;;
62572;SDS011;48626;51.678;5.806;2023-01-24T23:56:39;36.67;;;22.25;;
62572;SDS011;48626;51.678;5.806;2023-01-24T23:59:05;36.45;;;21.15;;
